sensor_id;sensor_type;location;lat;lon;timestamp;P1;durP1;ratioP1;P2;durP2;ratioP2
30080;SDS011;16902;50.816;12.828;2022-07-29T00:00:00;3.10;;;2.60;;
30080;SDS011;16902;50.816;12.828;2022-07-29T00:05:05;11.60;;;3.05;;
30080;SDS011;16902;50.816;12.828;2022-07-29T00:10:07;4.22;;;2.78;;
30080;SDS011;16902;50.816;12.828;2022-07-29T00:15:09;3.97;;;2.70;;
30080;SDS011;16902;50.816;12.828;2022-07-29T00:20:11;3.53;;;2.80;;
30080;SDS011;16902;50.816;12.828;2022-07-29T00:25:13;5.00;;;2.83;;
30080;SDS011;16902;50.816;12.828;2022-07-29T00:30:15;3.60;;;2.55;;
30080;SDS011;16902;50.816;12.828;2022-07-29T00:35:17;4.47;;;2.67;;
30080;SDS011;16902;50.816;12.828;2022-07-29T00:40:37;5.28;;;2.97;;
30080;SDS011;16902;50.816;12.828;2022-07-29T00:45:43;4.50;;;3.05;;
30080;SDS011;16902;50.816;12.828;2022-07-29T00:50:45;3.97;;;2.88;;
30080;SDS011;16902;50.816;12.828;2022-07-29T00:55:47;3.55;;;2.78;;
30080;SDS011;16902;50.816;12.828;2022-07-29T01:00:49;5.10;;;3.00;;
30080;SDS011;16902;50.816;12.828;2022-07-29T01:05:51;5.35;;;2.83;;
30080;SDS011;16902;50.816;12.828;2022-07-29T01:10:54;4.07;;;3.10;;
30080;SDS011;16902;50.816;12.828;2022-07-29T01:15:59;5.20;;;2.80;;
30080;SDS011;16902;50.816;12.828;2022-07-29T01:26:45;5.07;;;2.85;;
30080;SDS011;16902;50.816;12.828;2022-07-29T01:31:48;6.10;;;3.20;;
30080;SDS011;16902;50.816;12.828;2022-07-29T01:37:04;4.22;;;2.88;;
30080;SDS011;16902;50.816;12.828;2022-07-29T01:42:27;4.18;;;3.15;;
30080;SDS011;16902;50.816;12.828;2022-07-29T01:47:39;4.47;;;2.90;;
30080;SDS011;16902;50.816;12.828;2022-07-29T01:52:49;5.80;;;3.40;;
30080;SDS011;16902;50.816;12.828;2022-07-29T01:57:58;4.72;;;3.17;;
30080;SDS011;16902;50.816;12.828;2022-07-29T02:03:04;5.82;;;3.60;;
30080;SDS011;16902;50.816;12.828;2022-07-29T02:08:10;5.85;;;3.22;;
30080;SDS011;16902;50.816;12.828;2022-07-29T02:13:15;3.80;;;3.47;;
30080;SDS011;16902;50.816;12.828;2022-07-29T02:18:20;5.40;;;3.40;;
30080;SDS011;16902;50.816;12.828;2022-07-29T02:23:24;4.47;;;4.00;;
30080;SDS011;16902;50.816;12.828;2022-07-29T02:28:28;5.93;;;3.60;;
30080;SDS011;16902;50.816;12.828;2022-07-29T02:33:32;4.88;;;3.47;;
30080;SDS011;16902;50.816;12.828;2022-07-29T02:38:35;6.05;;;3.70;;
30080;SDS011;16902;50.816;12.828;2022-07-29T02:43:57;6.13;;;3.80;;
30080;SDS011;16902;50.816;12.828;2022-07-29T02:59:45;6.50;;;3.78;;
30080;SDS011;16902;50.816;12.828;2022-07-29T03:04:51;5.38;;;4.03;;
30080;SDS011;16902;50.816;12.828;2022-07-29T03:09:58;5.30;;;4.22;;
30080;SDS011;16902;50.816;12.828;2022-07-29T03:15:01;6.10;;;4.30;;
30080;SDS011;16902;50.816;12.828;2022-07-29T03:20:03;10.82;;;4.75;;
30080;SDS011;16902;50.816;12.828;2022-07-29T03:25:08;7.60;;;4.80;;
30080;SDS011;16902;50.816;12.828;2022-07-29T03:30:14;6.82;;;4.53;;
30080;SDS011;16902;50.816;12.828;2022-07-29T03:35:22;7.50;;;4.43;;
30080;SDS011;16902;50.816;12.828;2022-07-29T03:40:26;8.23;;;5.32;;
30080;SDS011;16902;50.816;12.828;2022-07-29T03:45:35;6.88;;;4.90;;
30080;SDS011;16902;50.816;12.828;2022-07-29T03:50:38;7.07;;;5.47;;
30080;SDS011;16902;50.816;12.828;2022-07-29T03:55:45;5.50;;;4.68;;
30080;SDS011;16902;50.816;12.828;2022-07-29T04:00:50;5.45;;;4.25;;
30080;SDS011;16902;50.816;12.828;2022-07-29T04:05:59;5.57;;;4.45;;
30080;SDS011;16902;50.816;12.828;2022-07-29T04:11:03;9.32;;;5.20;;
30080;SDS011;16902;50.816;12.828;2022-07-29T04:16:06;8.20;;;5.13;;
30080;SDS011;16902;50.816;12.828;2022-07-29T04:21:08;6.35;;;5.22;;
30080;SDS011;16902;50.816;12.828;2022-07-29T04:26:09;5.40;;;4.80;;
30080;SDS011;16902;50.816;12.828;2022-07-29T04:31:12;6.47;;;5.45;;
30080;SDS011;16902;50.816;12.828;2022-07-29T04:36:14;7.82;;;5.45;;
30080;SDS011;16902;50.816;12.828;2022-07-29T04:41:30;9.18;;;5.43;;
30080;SDS011;16902;50.816;12.828;2022-07-29T04:46:33;6.75;;;5.10;;
30080;SDS011;16902;50.816;12.828;2022-07-29T04:51:37;6.80;;;5.65;;
30080;SDS011;16902;50.816;12.828;2022-07-29T04:56:39;6.93;;;4.93;;
30080;SDS011;16902;50.816;12.828;2022-07-29T05:01:40;5.70;;;4.60;;
30080;SDS011;16902;50.816;12.828;2022-07-29T05:06:43;7.22;;;4.93;;
30080;SDS011;16902;50.816;12.828;2022-07-29T05:11:47;7.15;;;5.32;;
30080;SDS011;16902;50.816;12.828;2022-07-29T05:16:49;6.28;;;4.35;;
30080;SDS011;16902;50.816;12.828;2022-07-29T05:21:52;5.45;;;4.95;;
30080;SDS011;16902;50.816;12.828;2022-07-29T05:26:54;5.18;;;4.40;;
30080;SDS011;16902;50.816;12.828;2022-07-29T05:31:56;5.70;;;5.00;;
30080;SDS011;16902;50.816;12.828;2022-07-29T05:36:58;5.38;;;4.88;;
30080;SDS011;16902;50.816;12.828;2022-07-29T05:42:00;8.43;;;5.45;;
30080;SDS011;16902;50.816;12.828;2022-07-29T05:47:01;9.32;;;5.75;;
30080;SDS011;16902;50.816;12.828;2022-07-29T05:52:04;7.10;;;4.60;;
30080;SDS011;16902;50.816;12.828;2022-07-29T05:57:06;6.68;;;4.85;;
30080;SDS011;16902;50.816;12.828;2022-07-29T06:02:08;11.10;;;5.30;;
30080;SDS011;16902;50.816;12.828;2022-07-29T06:07:10;8.20;;;4.57;;
30080;SDS011;16902;50.816;12.828;2022-07-29T06:12:12;6.20;;;4.78;;
30080;SDS011;16902;50.816;12.828;2022-07-29T06:17:15;8.20;;;4.43;;
30080;SDS011;16902;50.816;12.828;2022-07-29T06:22:17;8.88;;;4.80;;
30080;SDS011;16902;50.816;12.828;2022-07-29T06:27:19;7.25;;;5.07;;
30080;SDS011;16902;50.816;12.828;2022-07-29T06:32:21;10.57;;;5.97;;
30080;SDS011;16902;50.816;12.828;2022-07-29T06:37:27;8.75;;;5.43;;
30080;SDS011;16902;50.816;12.828;2022-07-29T06:42:32;9.07;;;5.32;;
30080;SDS011;16902;50.816;12.828;2022-07-29T06:47:34;9.25;;;4.95;;
30080;SDS011;16902;50.816;12.828;2022-07-29T06:52:36;6.35;;;5.20;;
30080;SDS011;16902;50.816;12.828;2022-07-29T06:57:38;6.00;;;4.95;;
30080;SDS011;16902;50.816;12.828;2022-07-29T07:02:40;7.20;;;5.03;;
30080;SDS011;16902;50.816;12.828;2022-07-29T07:07:44;8.20;;;4.78;;
30080;SDS011;16902;50.816;12.828;2022-07-29T07:12:46;6.95;;;4.80;;
30080;SDS011;16902;50.816;12.828;2022-07-29T07:17:48;7.82;;;4.10;;
30080;SDS011;16902;50.816;12.828;2022-07-29T07:22:50;6.53;;;4.85;;
30080;SDS011;16902;50.816;12.828;2022-07-29T07:27:52;10.75;;;5.50;;
30080;SDS011;16902;50.816;12.828;2022-07-29T07:32:54;9.82;;;4.93;;
30080;SDS011;16902;50.816;12.828;2022-07-29T07:37:56;9.10;;;4.85;;
30080;SDS011;16902;50.816;12.828;2022-07-29T07:42:58;12.13;;;5.03;;
30080;SDS011;16902;50.816;12.828;2022-07-29T07:48:01;6.65;;;4.43;;
30080;SDS011;16902;50.816;12.828;2022-07-29T07:53:02;10.63;;;5.13;;
30080;SDS011;16902;50.816;12.828;2022-07-29T07:58:04;7.78;;;4.85;;
30080;SDS011;16902;50.816;12.828;2022-07-29T08:03:06;5.72;;;4.63;;
30080;SDS011;16902;50.816;12.828;2022-07-29T08:08:17;7.20;;;4.75;;
30080;SDS011;16902;50.816;12.828;2022-07-29T08:13:20;8.07;;;4.32;;
30080;SDS011;16902;50.816;12.828;2022-07-29T08:18:23;11.13;;;4.57;;
30080;SDS011;16902;50.816;12.828;2022-07-29T08:23:26;6.38;;;4.80;;
30080;SDS011;16902;50.816;12.828;2022-07-29T08:28:49;5.40;;;4.63;;
30080;SDS011;16902;50.816;12.828;2022-07-29T08:33:52;9.23;;;4.53;;
30080;SDS011;16902;50.816;12.828;2022-07-29T08:38:54;9.73;;;4.85;;
30080;SDS011;16902;50.816;12.828;2022-07-29T08:43:55;6.70;;;4.47;;
30080;SDS011;16902;50.816;12.828;2022-07-29T08:48:57;6.60;;;3.85;;
30080;SDS011;16902;50.816;12.828;2022-07-29T08:53:59;7.88;;;4.97;;
30080;SDS011;16902;50.816;12.828;2022-07-29T08:59:03;5.93;;;3.83;;
30080;SDS011;16902;50.816;12.828;2022-07-29T09:04:10;7.30;;;4.70;;
30080;SDS011;16902;50.816;12.828;2022-07-29T09:09:13;5.05;;;3.95;;
30080;SDS011;16902;50.816;12.828;2022-07-29T09:14:15;8.63;;;4.00;;
30080;SDS011;16902;50.816;12.828;2022-07-29T09:19:22;5.15;;;4.60;;
30080;SDS011;16902;50.816;12.828;2022-07-29T09:24:39;6.30;;;4.05;;
30080;SDS011;16902;50.816;12.828;2022-07-29T09:29:43;5.25;;;3.35;;
30080;SDS011;16902;50.816;12.828;2022-07-29T09:34:44;6.18;;;4.05;;
30080;SDS011;16902;50.816;12.828;2022-07-29T09:39:47;3.83;;;3.47;;
30080;SDS011;16902;50.816;12.828;2022-07-29T09:44:49;4.43;;;3.63;;
30080;SDS011;16902;50.816;12.828;2022-07-29T09:49:58;4.85;;;3.70;;
30080;SDS011;16902;50.816;12.828;2022-07-29T09:55:08;4.00;;;3.60;;
30080;SDS011;16902;50.816;12.828;2022-07-29T10:00:19;4.32;;;3.80;;
30080;SDS011;16902;50.816;12.828;2022-07-29T10:05:25;4.13;;;3.65;;
30080;SDS011;16902;50.816;12.828;2022-07-29T10:10:38;6.82;;;4.13;;
30080;SDS011;16902;50.816;12.828;2022-07-29T10:15:43;5.18;;;3.78;;
30080;SDS011;16902;50.816;12.828;2022-07-29T10:20:47;4.88;;;4.30;;
30080;SDS011;16902;50.816;12.828;2022-07-29T10:25:49;4.10;;;3.70;;
30080;SDS011;16902;50.816;12.828;2022-07-29T10:30:52;3.95;;;3.63;;
30080;SDS011;16902;50.816;12.828;2022-07-29T10:36:24;4.60;;;4.20;;
30080;SDS011;16902;50.816;12.828;2022-07-29T10:41:47;4.13;;;3.72;;
30080;SDS011;16902;50.816;12.828;2022-07-29T10:47:00;3.67;;;3.38;;
30080;SDS011;16902;50.816;12.828;2022-07-29T10:52:06;6.05;;;3.95;;
30080;SDS011;16902;50.816;12.828;2022-07-29T11:02:49;5.38;;;3.22;;
30080;SDS011;16902;50.816;12.828;2022-07-29T11:24:30;3.58;;;3.22;;
30080;SDS011;16902;50.816;12.828;2022-07-29T11:29:36;4.28;;;3.22;;
30080;SDS011;16902;50.816;12.828;2022-07-29T11:40:40;6.30;;;3.22;;
30080;SDS011;16902;50.816;12.828;2022-07-29T11:45:46;5.13;;;3.60;;
30080;SDS011;16902;50.816;12.828;2022-07-29T11:50:48;3.30;;;3.10;;
30080;SDS011;16902;50.816;12.828;2022-07-29T11:55:54;5.20;;;3.53;;
30080;SDS011;16902;50.816;12.828;2022-07-29T12:00:58;3.80;;;3.40;;
30080;SDS011;16902;50.816;12.828;2022-07-29T12:06:21;4.28;;;3.35;;
30080;SDS011;16902;50.816;12.828;2022-07-29T12:11:23;3.17;;;2.88;;
30080;SDS011;16902;50.816;12.828;2022-07-29T12:16:35;3.38;;;3.00;;
30080;SDS011;16902;50.816;12.828;2022-07-29T12:21:45;3.30;;;3.10;;
30080;SDS011;16902;50.816;12.828;2022-07-29T12:26:57;3.70;;;3.30;;
30080;SDS011;16902;50.816;12.828;2022-07-29T12:32:01;6.75;;;3.35;;
30080;SDS011;16902;50.816;12.828;2022-07-29T12:37:05;3.95;;;3.42;;
30080;SDS011;16902;50.816;12.828;2022-07-29T12:42:11;5.82;;;3.53;;
30080;SDS011;16902;50.816;12.828;2022-07-29T12:47:19;5.18;;;3.50;;
30080;SDS011;16902;50.816;12.828;2022-07-29T12:57:28;5.82;;;3.63;;
30080;SDS011;16902;50.816;12.828;2022-07-29T13:02:30;4.65;;;4.05;;
30080;SDS011;16902;50.816;12.828;2022-07-29T13:07:32;6.03;;;3.88;;
30080;SDS011;16902;50.816;12.828;2022-07-29T13:13:03;4.82;;;4.43;;
30080;SDS011;16902;50.816;12.828;2022-07-29T13:18:26;4.47;;;4.07;;
30080;SDS011;16902;50.816;12.828;2022-07-29T13:23:35;5.18;;;4.40;;
30080;SDS011;16902;50.816;12.828;2022-07-29T13:28:38;4.55;;;4.13;;
30080;SDS011;16902;50.816;12.828;2022-07-29T13:33:44;5.63;;;4.30;;
30080;SDS011;16902;50.816;12.828;2022-07-29T13:38:46;10.30;;;5.65;;
30080;SDS011;16902;50.816;12.828;2022-07-29T13:43:48;7.95;;;5.43;;
30080;SDS011;16902;50.816;12.828;2022-07-29T13:48:50;6.85;;;6.10;;
30080;SDS011;16902;50.816;12.828;2022-07-29T13:53:52;10.88;;;7.53;;
30080;SDS011;16902;50.816;12.828;2022-07-29T13:58:54;9.60;;;8.00;;
30080;SDS011;16902;50.816;12.828;2022-07-29T14:03:56;11.73;;;7.57;;
30080;SDS011;16902;50.816;12.828;2022-07-29T14:08:58;10.50;;;8.13;;
30080;SDS011;16902;50.816;12.828;2022-07-29T14:14:00;9.52;;;8.63;;
30080;SDS011;16902;50.816;12.828;2022-07-29T14:19:02;8.55;;;7.75;;
30080;SDS011;16902;50.816;12.828;2022-07-29T14:24:05;11.07;;;9.48;;
30080;SDS011;16902;50.816;12.828;2022-07-29T14:29:22;9.90;;;8.90;;
30080;SDS011;16902;50.816;12.828;2022-07-29T14:34:38;9.88;;;8.82;;
30080;SDS011;16902;50.816;12.828;2022-07-29T14:39:40;10.05;;;9.07;;
30080;SDS011;16902;50.816;12.828;2022-07-29T14:44:43;10.20;;;8.75;;
30080;SDS011;16902;50.816;12.828;2022-07-29T14:49:47;13.77;;;11.40;;
30080;SDS011;16902;50.816;12.828;2022-07-29T14:54:49;12.52;;;11.25;;
30080;SDS011;16902;50.816;12.828;2022-07-29T14:59:51;14.55;;;11.75;;
30080;SDS011;16902;50.816;12.828;2022-07-29T15:04:53;16.50;;;12.65;;
30080;SDS011;16902;50.816;12.828;2022-07-29T15:09:55;13.70;;;12.40;;
30080;SDS011;16902;50.816;12.828;2022-07-29T15:15:00;13.55;;;12.00;;
30080;SDS011;16902;50.816;12.828;2022-07-29T15:20:04;14.25;;;12.50;;
30080;SDS011;16902;50.816;12.828;2022-07-29T15:25:06;12.38;;;11.13;;
30080;SDS011;16902;50.816;12.828;2022-07-29T15:30:08;11.55;;;10.32;;
30080;SDS011;16902;50.816;12.828;2022-07-29T15:35:31;9.65;;;8.73;;
30080;SDS011;16902;50.816;12.828;2022-07-29T15:40:33;10.55;;;8.68;;
30080;SDS011;16902;50.816;12.828;2022-07-29T15:45:36;11.80;;;9.05;;
30080;SDS011;16902;50.816;12.828;2022-07-29T15:50:40;10.48;;;9.27;;
30080;SDS011;16902;50.816;12.828;2022-07-29T15:55:47;11.23;;;10.23;;
30080;SDS011;16902;50.816;12.828;2022-07-29T16:00:49;9.30;;;8.50;;
30080;SDS011;16902;50.816;12.828;2022-07-29T16:05:51;10.48;;;9.48;;
30080;SDS011;16902;50.816;12.828;2022-07-29T16:10:53;10.27;;;9.27;;
30080;SDS011;16902;50.816;12.828;2022-07-29T16:15:55;9.10;;;8.20;;
30080;SDS011;16902;50.816;12.828;2022-07-29T16:21:03;10.38;;;9.38;;
30080;SDS011;16902;50.816;12.828;2022-07-29T16:26:05;10.43;;;9.52;;
30080;SDS011;16902;50.816;12.828;2022-07-29T16:31:08;9.90;;;8.88;;
30080;SDS011;16902;50.816;12.828;2022-07-29T16:36:10;10.00;;;9.00;;
30080;SDS011;16902;50.816;12.828;2022-07-29T16:41:15;8.25;;;7.55;;
30080;SDS011;16902;50.816;12.828;2022-07-29T16:46:17;10.00;;;9.20;;
30080;SDS011;16902;50.816;12.828;2022-07-29T16:51:20;8.63;;;7.85;;
30080;SDS011;16902;50.816;12.828;2022-07-29T16:56:22;9.77;;;8.85;;
30080;SDS011;16902;50.816;12.828;2022-07-29T17:01:25;9.38;;;8.57;;
30080;SDS011;16902;50.816;12.828;2022-07-29T17:06:27;8.30;;;7.50;;
30080;SDS011;16902;50.816;12.828;2022-07-29T17:11:30;10.23;;;9.32;;
30080;SDS011;16902;50.816;12.828;2022-07-29T17:16:53;9.40;;;8.50;;
30080;SDS011;16902;50.816;12.828;2022-07-29T17:22:02;9.80;;;8.95;;
30080;SDS011;16902;50.816;12.828;2022-07-29T17:27:19;8.60;;;7.90;;
30080;SDS011;16902;50.816;12.828;2022-07-29T17:32:21;10.93;;;9.30;;
30080;SDS011;16902;50.816;12.828;2022-07-29T17:37:23;9.48;;;8.32;;
30080;SDS011;16902;50.816;12.828;2022-07-29T17:42:25;10.43;;;9.45;;
30080;SDS011;16902;50.816;12.828;2022-07-29T17:47:26;10.27;;;9.15;;
30080;SDS011;16902;50.816;12.828;2022-07-29T17:52:28;11.82;;;10.70;;
30080;SDS011;16902;50.816;12.828;2022-07-29T17:57:30;10.43;;;9.52;;
30080;SDS011;16902;50.816;12.828;2022-07-29T18:02:32;10.15;;;9.25;;
30080;SDS011;16902;50.816;12.828;2022-07-29T18:07:34;10.13;;;9.32;;
30080;SDS011;16902;50.816;12.828;2022-07-29T18:12:36;11.65;;;10.55;;
30080;SDS011;16902;50.816;12.828;2022-07-29T18:17:38;10.63;;;9.70;;
30080;SDS011;16902;50.816;12.828;2022-07-29T18:22:58;11.45;;;10.40;;
30080;SDS011;16902;50.816;12.828;2022-07-29T18:28:02;11.90;;;10.80;;
30080;SDS011;16902;50.816;12.828;2022-07-29T18:33:05;12.23;;;10.93;;
30080;SDS011;16902;50.816;12.828;2022-07-29T18:38:24;12.05;;;11.00;;
30080;SDS011;16902;50.816;12.828;2022-07-29T18:43:26;11.45;;;10.48;;
30080;SDS011;16902;50.816;12.828;2022-07-29T18:48:28;13.50;;;12.38;;
30080;SDS011;16902;50.816;12.828;2022-07-29T18:53:32;13.35;;;12.07;;
30080;SDS011;16902;50.816;12.828;2022-07-29T18:58:37;13.27;;;12.00;;
30080;SDS011;16902;50.816;12.828;2022-07-29T19:03:39;13.95;;;12.52;;
30080;SDS011;16902;50.816;12.828;2022-07-29T19:08:41;11.43;;;10.43;;
30080;SDS011;16902;50.816;12.828;2022-07-29T19:13:43;12.20;;;11.10;;
30080;SDS011;16902;50.816;12.828;2022-07-29T19:18:45;13.95;;;12.68;;
30080;SDS011;16902;50.816;12.828;2022-07-29T19:23:50;11.57;;;10.50;;
30080;SDS011;16902;50.816;12.828;2022-07-29T19:29:07;12.55;;;11.48;;
30080;SDS011;16902;50.816;12.828;2022-07-29T19:34:09;10.80;;;9.90;;
30080;SDS011;16902;50.816;12.828;2022-07-29T19:39:12;11.18;;;10.18;;
30080;SDS011;16902;50.816;12.828;2022-07-29T19:44:13;11.18;;;10.10;;
30080;SDS011;16902;50.816;12.828;2022-07-29T19:49:16;11.00;;;10.10;;
30080;SDS011;16902;50.816;12.828;2022-07-29T19:54:18;13.07;;;11.98;;
30080;SDS011;16902;50.816;12.828;2022-07-29T19:59:21;11.63;;;10.52;;
30080;SDS011;16902;50.816;12.828;2022-07-29T20:04:24;12.13;;;10.90;;
30080;SDS011;16902;50.816;12.828;2022-07-29T20:09:28;13.35;;;11.88;;
30080;SDS011;16902;50.816;12.828;2022-07-29T20:14:31;11.85;;;10.80;;
30080;SDS011;16902;50.816;12.828;2022-07-29T20:19:36;14.77;;;13.38;;
30080;SDS011;16902;50.816;12.828;2022-07-29T20:24:38;14.45;;;13.05;;
30080;SDS011;16902;50.816;12.828;2022-07-29T20:29:41;12.95;;;11.77;;
30080;SDS011;16902;50.816;12.828;2022-07-29T20:34:43;16.15;;;14.73;;
30080;SDS011;16902;50.816;12.828;2022-07-29T20:39:45;18.50;;;16.60;;
30080;SDS011;16902;50.816;12.828;2022-07-29T20:44:48;16.30;;;14.80;;
30080;SDS011;16902;50.816;12.828;2022-07-29T20:49:51;17.67;;;15.98;;
30080;SDS011;16902;50.816;12.828;2022-07-29T20:54:53;17.45;;;15.73;;
30080;SDS011;16902;50.816;12.828;2022-07-29T20:59:55;16.63;;;15.02;;
30080;SDS011;16902;50.816;12.828;2022-07-29T21:04:57;15.98;;;14.57;;
30080;SDS011;16902;50.816;12.828;2022-07-29T21:09:59;16.23;;;14.63;;
30080;SDS011;16902;50.816;12.828;2022-07-29T21:15:00;16.50;;;14.95;;
30080;SDS011;16902;50.816;12.828;2022-07-29T21:20:06;15.52;;;14.07;;
30080;SDS011;16902;50.816;12.828;2022-07-29T21:25:09;16.55;;;14.98;;
30080;SDS011;16902;50.816;12.828;2022-07-29T21:30:11;16.15;;;14.63;;
30080;SDS011;16902;50.816;12.828;2022-07-29T21:35:13;15.60;;;14.20;;
30080;SDS011;16902;50.816;12.828;2022-07-29T21:40:34;14.05;;;12.75;;
30080;SDS011;16902;50.816;12.828;2022-07-29T21:45:36;13.85;;;12.60;;
30080;SDS011;16902;50.816;12.828;2022-07-29T21:50:38;13.82;;;12.52;;
30080;SDS011;16902;50.816;12.828;2022-07-29T21:55:40;15.35;;;12.25;;
30080;SDS011;16902;50.816;12.828;2022-07-29T22:00:42;14.80;;;13.15;;
30080;SDS011;16902;50.816;12.828;2022-07-29T22:05:45;15.77;;;14.15;;
30080;SDS011;16902;50.816;12.828;2022-07-29T22:10:47;15.15;;;13.63;;
30080;SDS011;16902;50.816;12.828;2022-07-29T22:15:49;12.73;;;11.43;;
30080;SDS011;16902;50.816;12.828;2022-07-29T22:20:50;13.68;;;12.45;;
30080;SDS011;16902;50.816;12.828;2022-07-29T22:25:52;15.23;;;13.73;;
30080;SDS011;16902;50.816;12.828;2022-07-29T22:30:54;15.27;;;13.88;;
30080;SDS011;16902;50.816;12.828;2022-07-29T22:35:55;14.75;;;13.40;;
30080;SDS011;16902;50.816;12.828;2022-07-29T22:40:57;14.32;;;12.98;;
30080;SDS011;16902;50.816;12.828;2022-07-29T22:46:01;13.05;;;11.70;;
30080;SDS011;16902;50.816;12.828;2022-07-29T22:51:03;13.55;;;12.30;;
30080;SDS011;16902;50.816;12.828;2022-07-29T22:56:05;13.48;;;12.23;;
30080;SDS011;16902;50.816;12.828;2022-07-29T23:01:07;13.20;;;12.00;;
30080;SDS011;16902;50.816;12.828;2022-07-29T23:06:09;12.75;;;11.45;;
30080;SDS011;16902;50.816;12.828;2022-07-29T23:11:11;11.73;;;10.68;;
30080;SDS011;16902;50.816;12.828;2022-07-29T23:16:12;12.45;;;11.35;;
30080;SDS011;16902;50.816;12.828;2022-07-29T23:21:27;11.73;;;10.52;;
30080;SDS011;16902;50.816;12.828;2022-07-29T23:26:28;11.93;;;10.73;;
30080;SDS011;16902;50.816;12.828;2022-07-29T23:31:30;11.20;;;10.10;;
30080;SDS011;16902;50.816;12.828;2022-07-29T23:36:32;11.10;;;10.10;;
30080;SDS011;16902;50.816;12.828;2022-07-29T23:41:34;11.10;;;10.00;;
30080;SDS011;16902;50.816;12.828;2022-07-29T23:46:35;10.60;;;9.60;;
30080;SDS011;16902;50.816;12.828;2022-07-29T23:51:37;10.25;;;9.23;;
30080;SDS011;16902;50.816;12.828;2022-07-29T23:56:39;9.93;;;9.02;;
